Time;durP1;ratioP1;P1;durP2;ratioP2;P2;SDS_P1;SDS_P2;PMS_P1;PMS_P2;Temp;Humidity;BMP_temperature;BMP_pressure;BME280_temperature;BME280_humidity;BME280_pressure;Samples;Min_cycle;Max_cycle;Signal;HPM_P1;HPM_P2
2021/05/24 00:00:15;;;;;;;0.50;0.50;;;22.90;45.10;;;;;;5037804;28;20124;-61
2021/05/24 00:02:43;;;;;;;0.30;0.25;;;22.90;45.10;;;;;;5037530;28;20072;-61
2021/05/24 00:05:14;;;;;;;0.52;0.50;;;23.00;45.00;;;;;;5035959;28;20136;-61
2021/05/24 00:07:42;;;;;;;0.30;0.30;;;23.00;45.00;;;;;;5035374;28;20077;-61
2021/05/24 00:10:13;;;;;;;0.43;0.38;;;22.90;45.00;;;;;;5036460;28;20080;-61
2021/05/24 00:12:46;;;;;;;0.30;0.28;;;22.90;45.00;;;;;;5037892;28;20049;-61
2021/05/24 00:15:18;;;;;;;0.50;0.50;;;22.90;45.10;;;;;;5036159;28;20084;-61
2021/05/24 00:17:47;;;;;;;0.22;0.22;;;22.90;45.10;;;;;;5034239;28;20045;-61
2021/05/24 00:20:16;;;;;;;0.30;0.30;;;22.90;45.20;;;;;;5035445;28;20164;-61
2021/05/24 00:22:43;;;;;;;0.40;0.30;;;22.90;45.20;;;;;;5036884;28;20073;-61
2021/05/24 00:25:11;;;;;;;0.28;0.25;;;22.80;45.10;;;;;;5036218;28;20557;-61
2021/05/24 00:27:38;;;;;;;0.30;0.22;;;22.90;45.30;;;;;;5035093;28;20076;-60
2021/05/24 00:30:06;;;;;;;0.30;0.30;;;22.80;45.20;;;;;;5036233;28;20065;-61
2021/05/24 00:32:34;;;;;;;0.38;0.30;;;22.80;45.20;;;;;;5035515;28;20049;-61
2021/05/24 00:35:01;;;;;;;0.35;0.35;;;22.80;45.30;;;;;;5036959;28;20549;-61
2021/05/24 00:37:28;;;;;;;0.38;0.38;;;22.80;45.30;;;;;;5035546;28;20045;-60
2021/05/24 00:39:56;;;;;;;0.40;0.40;;;22.80;45.30;;;;;;5036180;28;20264;-61
2021/05/24 00:42:23;;;;;;;0.55;0.55;;;22.80;45.30;;;;;;5036778;28;20043;-60
2021/05/24 00:44:51;;;;;;;0.73;0.10;;;22.80;45.40;;;;;;5035557;28;20289;-61
2021/05/24 00:47:18;;;;;;;0.40;0.40;;;22.80;45.30;;;;;;5027078;28;20056;-61
2021/05/24 00:49:45;;;;;;;0.30;0.30;;;22.80;45.30;;;;;;5027116;28;20095;-60
2021/05/24 00:52:13;;;;;;;0.30;0.30;;;22.80;45.30;;;;;;5026511;28;20581;-60
2021/05/24 00:54:41;;;;;;;0.30;0.30;;;22.80;45.20;;;;;;5027459;28;20123;-61
2021/05/24 00:57:08;;;;;;;0.35;0.35;;;22.80;45.20;;;;;;5026896;28;20049;-61
2021/05/24 00:59:36;;;;;;;0.25;0.20;;;22.80;45.20;;;;;;5026893;28;20233;-61
2021/05/24 01:02:04;;;;;;;0.52;0.30;;;22.80;45.10;;;;;;5026228;28;20329;-61
2021/05/24 01:04:34;;;;;;;0.20;0.20;;;22.80;45.10;;;;;;5027057;28;20655;-61
2021/05/24 01:07:03;;;;;;;0.57;0.20;;;22.80;45.10;;;;;;5026299;28;20136;-61
2021/05/24 01:09:31;;;;;;;0.20;0.20;;;22.80;45.20;;;;;;5026097;28;20115;-60
2021/05/24 01:11:58;;;;;;;0.90;0.45;;;22.80;45.20;;;;;;5026657;28;20679;-60
2021/05/24 01:14:25;;;;;;;2.03;0.50;;;22.80;45.30;;;;;;5024723;28;20103;-60
2021/05/24 01:16:54;;;;;;;0.47;0.43;;;22.70;45.30;;;;;;5040988;28;20152;-61
2021/05/24 01:19:23;;;;;;;0.45;0.45;;;22.80;45.40;;;;;;5026357;28;20084;-61
2021/05/24 01:21:50;;;;;;;0.50;0.50;;;22.70;45.30;;;;;;5026704;28;20510;-61
2021/05/24 01:24:19;;;;;;;0.50;0.50;;;22.70;45.40;;;;;;5027017;28;20111;-61
2021/05/24 01:26:47;;;;;;;1.73;0.50;;;22.70;45.40;;;;;;5025961;28;20681;-61
2021/05/24 01:29:19;;;;;;;0.30;0.30;;;22.70;45.40;;;;;;5025390;28;20485;-61
2021/05/24 01:31:47;;;;;;;0.50;0.50;;;22.70;45.50;;;;;;5026267;28;20077;-61
2021/05/24 01:34:15;;;;;;;0.50;0.50;;;22.70;45.50;;;;;;5026173;28;20084;-61
2021/05/24 01:36:42;;;;;;;0.30;0.30;;;22.70;45.50;;;;;;5026096;28;20080;-61
2021/05/24 01:39:09;;;;;;;0.38;0.38;;;22.70;45.50;;;;;;5026142;28;20155;-61
2021/05/24 01:41:37;;;;;;;0.30;0.30;;;22.70;46.00;;;;;;5026318;28;20072;-62
2021/05/24 01:44:04;;;;;;;0.30;0.30;;;22.70;45.40;;;;;;5026758;28;20621;-60
2021/05/24 01:46:32;;;;;;;0.40;0.35;;;22.70;45.40;;;;;;5026068;28;20410;-60
2021/05/24 01:48:59;;;;;;;0.65;0.30;;;22.70;45.30;;;;;;5025790;28;20057;-61
2021/05/24 01:51:26;;;;;;;0.43;0.43;;;22.80;45.40;;;;;;5025491;28;20041;-60
2021/05/24 01:53:53;;;;;;;0.47;0.35;;;22.80;45.30;;;;;;5026027;28;20137;-61
2021/05/24 01:56:20;;;;;;;1.38;1.00;;;22.80;45.20;;;;;;5025976;28;20049;-61
2021/05/24 01:58:47;;;;;;;0.40;0.40;;;22.80;45.20;;;;;;5025646;28;20251;-61
2021/05/24 02:01:14;;;;;;;0.45;0.40;;;22.80;45.20;;;;;;5026283;28;20053;-60
2021/05/24 02:03:44;;;;;;;0.60;0.40;;;22.70;45.20;;;;;;5025543;28;20465;-60
2021/05/24 02:06:11;;;;;;;0.20;0.20;;;22.70;45.20;;;;;;5025980;28;20457;-61
2021/05/24 02:08:39;;;;;;;0.28;0.28;;;22.70;45.30;;;;;;5025501;28;20095;-61
2021/05/24 02:11:06;;;;;;;0.47;0.47;;;22.70;45.30;;;;;;5025952;28;20095;-61
2021/05/24 02:13:33;;;;;;;0.50;0.50;;;22.70;45.40;;;;;;5025522;28;20100;-61
2021/05/24 02:16:00;;;;;;;0.30;0.30;;;22.60;45.40;;;;;;5025519;28;20038;-60
2021/05/24 02:18:27;;;;;;;0.40;0.30;;;22.60;45.40;;;;;;5040229;28;20088;-61
2021/05/24 02:20:54;;;;;;;0.30;0.30;;;22.60;45.50;;;;;;5025043;28;20087;-61
2021/05/24 02:23:22;;;;;;;0.20;0.20;;;22.60;45.50;;;;;;5024905;28;20049;-61
2021/05/24 02:25:49;;;;;;;0.45;0.45;;;22.60;45.50;;;;;;5025759;28;20107;-61
2021/05/24 02:28:16;;;;;;;0.20;0.20;;;22.60;45.50;;;;;;5024796;28;20096;-61
2021/05/24 02:30:43;;;;;;;0.32;0.32;;;22.60;45.50;;;;;;5025709;28;20129;-60
2021/05/24 02:33:10;;;;;;;0.52;0.52;;;22.60;45.50;;;;;;5024813;28;20053;-61
2021/05/24 02:35:37;;;;;;;0.30;0.30;;;22.60;45.60;;;;;;5025630;28;20128;-60
2021/05/24 02:38:05;;;;;;;0.38;0.38;;;22.60;45.50;;;;;;5025036;28;20468;-60
2021/05/24 02:40:33;;;;;;;2.35;0.70;;;22.70;45.50;;;;;;5025460;28;20160;-61
2021/05/24 02:43:02;;;;;;;0.25;0.25;;;22.70;45.40;;;;;;5025411;28;20049;-61
2021/05/24 02:45:30;;;;;;;0.40;0.40;;;22.70;45.40;;;;;;5025246;28;20057;-61
2021/05/24 02:47:59;;;;;;;0.30;0.30;;;22.70;45.30;;;;;;5024386;28;20045;-60
2021/05/24 02:50:27;;;;;;;0.30;0.30;;;22.70;45.20;;;;;;5024078;28;20049;-61
2021/05/24 02:52:54;;;;;;;0.40;0.38;;;22.70;45.20;;;;;;5024639;28;20085;-60
2021/05/24 02:55:22;;;;;;;0.40;0.40;;;22.70;45.20;;;;;;5026007;28;20119;-60
2021/05/24 02:57:49;;;;;;;0.35;0.35;;;22.70;45.20;;;;;;5024687;28;20076;-61
2021/05/24 03:00:17;;;;;;;0.30;0.30;;;22.70;45.20;;;;;;5023905;28;20083;-60
2021/05/24 03:02:46;;;;;;;0.22;0.22;;;22.70;45.30;;;;;;5024799;28;20053;-61
2021/05/24 03:05:15;;;;;;;0.22;0.22;;;22.70;45.30;;;;;;5025004;28;20053;-60
2021/05/24 03:07:42;;;;;;;3.20;0.35;;;22.70;45.30;;;;;;5024435;28;20092;-60
2021/05/24 03:10:10;;;;;;;0.50;0.38;;;22.60;45.30;;;;;;5024844;28;20080;-60
2021/05/24 03:12:37;;;;;;;0.30;0.30;;;22.60;45.30;;;;;;5025567;28;20049;-61
2021/05/24 03:15:05;;;;;;;0.20;0.20;;;22.60;45.40;;;;;;5024714;28;20133;-60
2021/05/24 03:17:32;;;;;;;0.30;0.30;;;22.60;45.40;;;;;;5025134;28;20089;-61
2021/05/24 03:20:00;;;;;;;0.20;0.20;;;22.60;45.40;;;;;;5024821;28;20057;-60
2021/05/24 03:22:27;;;;;;;0.30;0.30;;;22.60;45.40;;;;;;5024365;28;20328;-61
2021/05/24 03:24:54;;;;;;;0.30;0.30;;;22.60;45.40;;;;;;5025230;28;20065;-61
2021/05/24 03:27:25;;;;;;;0.20;0.20;;;22.60;45.40;;;;;;5024658;28;20316;-61
2021/05/24 03:29:52;;;;;;;0.40;0.35;;;22.60;45.30;;;;;;5024810;28;20478;-61
2021/05/24 03:32:19;;;;;;;0.40;0.40;;;22.70;45.30;;;;;;5024332;28;20132;-60
2021/05/24 03:34:46;;;;;;;0.40;0.30;;;22.70;45.20;;;;;;5024567;28;20080;-60
2021/05/24 03:37:13;;;;;;;0.38;0.38;;;22.70;45.20;;;;;;5024907;28;20301;-61
2021/05/24 03:39:40;;;;;;;0.20;0.20;;;22.70;45.10;;;;;;5026841;28;20298;-61
2021/05/24 03:42:07;;;;;;;0.20;0.20;;;22.70;45.00;;;;;;5027304;28;20076;-60
2021/05/24 03:44:36;;;;;;;0.20;0.20;;;22.80;45.00;;;;;;5026803;28;20056;-61
2021/05/24 03:47:03;;;;;;;0.30;0.30;;;22.80;44.90;;;;;;5028172;28;20052;-61
2021/05/24 03:49:30;;;;;;;0.30;0.30;;;22.80;44.90;;;;;;5042892;28;20190;-60
2021/05/24 03:51:58;;;;;;;0.38;0.30;;;22.80;44.80;;;;;;5028222;28;20141;-61
2021/05/24 03:54:25;;;;;;;0.30;0.30;;;22.90;44.80;;;;;;5027759;28;20469;-60
2021/05/24 03:56:52;;;;;;;0.50;0.50;;;22.90;44.70;;;;;;5027774;28;20099;-60
2021/05/24 03:59:19;;;;;;;0.47;0.32;;;22.90;44.60;;;;;;5027193;28;20567;-60
2021/05/24 04:01:49;;;;;;;0.35;0.28;;;22.90;44.50;;;;;;5028025;28;20061;-60
2021/05/24 04:04:17;;;;;;;0.68;0.35;;;23.00;44.50;;;;;;5027207;28;20088;-60
2021/05/24 04:06:48;;;;;;;0.20;0.20;;;23.00;44.40;;;;;;5028130;28;20344;-61
2021/05/24 04:09:15;;;;;;;0.45;0.22;;;23.00;44.40;;;;;;5027208;28;20485;-61
2021/05/24 04:11:43;;;;;;;0.40;0.40;;;23.10;44.30;;;;;;5027545;28;20054;-61
2021/05/24 04:14:10;;;;;;;0.30;0.30;;;23.10;44.30;;;;;;5027537;28;20132;-61
2021/05/24 04:16:37;;;;;;;0.28;0.20;;;23.10;44.20;;;;;;5027515;28;20474;-61
2021/05/24 04:19:10;;;;;;;0.40;0.40;;;23.10;44.20;;;;;;5027713;28;20658;-61
2021/05/24 04:21:42;;;;;;;0.38;0.30;;;23.20;44.20;;;;;;5026327;28;20053;-61
2021/05/24 04:24:11;;;;;;;0.47;0.22;;;23.20;44.10;;;;;;5027019;28;20407;-60
2021/05/24 04:26:39;;;;;;;0.20;0.20;;;23.20;44.00;;;;;;5027445;28;20107;-61
2021/05/24 04:29:06;;;;;;;0.30;0.30;;;23.30;44.00;;;;;;5027332;28;20391;-61
2021/05/24 04:31:34;;;;;;;0.60;0.60;;;23.30;43.80;;;;;;5027662;28;20402;-61
2021/05/24 04:34:02;;;;;;;0.20;0.20;;;23.40;43.70;;;;;;5027554;28;20285;-60
2021/05/24 04:36:30;;;;;;;0.35;0.35;;;23.40;43.60;;;;;;5027465;28;20049;-61
2021/05/24 04:38:57;;;;;;;1.50;0.20;;;23.40;43.50;;;;;;5027106;28;20057;-61
2021/05/24 04:41:24;;;;;;;0.30;0.30;;;23.40;43.50;;;;;;5025702;28;20727;-61
2021/05/24 04:43:55;;;;;;;0.20;0.20;;;23.40;43.40;;;;;;5027553;28;20132;-61
2021/05/24 04:46:23;;;;;;;0.25;0.25;;;23.50;43.40;;;;;;5026442;28;20540;-61
2021/05/24 04:48:50;;;;;;;0.85;0.20;;;23.50;43.30;;;;;;5027324;28;20053;-60
2021/05/24 04:51:17;;;;;;;0.20;0.20;;;23.50;43.30;;;;;;5028559;28;20046;-61
2021/05/24 04:53:44;;;;;;;0.32;0.30;;;23.50;43.30;;;;;;5038246;28;20115;-61
2021/05/24 04:56:11;;;;;;;0.20;0.20;;;23.50;43.20;;;;;;5046940;28;20160;-61
2021/05/24 04:58:38;;;;;;;0.55;0.22;;;23.60;43.30;;;;;;5043146;28;20114;-60
2021/05/24 05:01:05;;;;;;;0.22;0.22;;;23.60;43.20;;;;;;5045603;28;20616;-60
2021/05/24 05:03:34;;;;;;;0.20;0.20;;;23.60;43.10;;;;;;5045760;28;20049;-61
2021/05/24 05:06:02;;;;;;;0.55;0.20;;;23.70;43.00;;;;;;5040065;28;20516;-61
2021/05/24 05:08:29;;;;;;;0.63;0.63;;;23.70;42.90;;;;;;5026436;28;20046;-61
2021/05/24 05:10:56;;;;;;;0.30;0.30;;;23.80;42.80;;;;;;5026066;28;20041;-61
2021/05/24 05:13:23;;;;;;;0.60;0.40;;;23.80;42.70;;;;;;5026934;28;20107;-61
2021/05/24 05:15:50;;;;;;;0.30;0.30;;;23.80;42.60;;;;;;5025361;28;20133;-61
2021/05/24 05:18:18;;;;;;;0.20;0.20;;;23.90;42.60;;;;;;5026436;28;20336;-61
2021/05/24 05:20:45;;;;;;;0.30;0.30;;;23.90;42.50;;;;;;5026225;28;20136;-61
2021/05/24 05:23:12;;;;;;;0.30;0.30;;;23.90;42.30;;;;;;5026373;28;20157;-62
2021/05/24 05:25:39;;;;;;;0.20;0.20;;;23.90;42.30;;;;;;5026644;28;20045;-61
2021/05/24 05:28:07;;;;;;;0.40;0.40;;;24.00;42.30;;;;;;5025982;28;20063;-61
2021/05/24 05:30:34;;;;;;;0.30;0.30;;;24.00;42.10;;;;;;5025937;28;20050;-61
2021/05/24 05:33:01;;;;;;;0.25;0.22;;;24.10;42.10;;;;;;5025768;28;20361;-61
2021/05/24 05:35:32;;;;;;;;;;;24.10;42.00;;;;;;5026227;28;20037;-61
2021/05/24 05:37:59;;;;;;;0.30;0.28;;;24.20;42.00;;;;;;5026494;28;19994;-60
2021/05/24 05:40:27;;;;;;;0.25;0.25;;;24.20;41.90;;;;;;5026196;28;20068;-60
2021/05/24 05:42:55;;;;;;;0.30;0.30;;;24.20;41.80;;;;;;5025829;28;20136;-60
2021/05/24 05:45:22;;;;;;;0.40;0.40;;;24.30;41.80;;;;;;5025812;28;20317;-61
2021/05/24 05:47:49;;;;;;;0.20;0.20;;;24.30;41.70;;;;;;5025796;28;20045;-61
2021/05/24 05:50:16;;;;;;;0.30;0.30;;;24.40;41.60;;;;;;5025666;28;20046;-62
2021/05/24 05:52:43;;;;;;;0.13;0.13;;;24.40;41.50;;;;;;5025379;28;20112;-61
2021/05/24 05:55:11;;;;;;;0.40;0.40;;;24.40;41.50;;;;;;5026435;28;20050;-61
2021/05/24 05:57:38;;;;;;;0.38;0.38;;;24.50;41.40;;;;;;5025369;28;20045;-61
2021/05/24 06:00:12;;;;;;;0.30;0.30;;;24.50;41.40;;;;;;5025269;28;20042;-61
2021/05/24 06:02:40;;;;;;;0.32;0.32;;;24.50;41.20;;;;;;5025571;28;20298;-61
2021/05/24 06:05:11;;;;;;;0.20;0.20;;;24.60;41.20;;;;;;5025627;28;20120;-61
2021/05/24 06:07:39;;;;;;;0.13;0.13;;;24.60;41.20;;;;;;5025593;28;20287;-61
2021/05/24 06:10:07;;;;;;;0.40;0.40;;;24.70;41.10;;;;;;5025312;28;20053;-60
2021/05/24 06:12:35;;;;;;;0.43;0.30;;;24.70;41.00;;;;;;5025129;28;20057;-61
2021/05/24 06:15:03;;;;;;;0.30;0.30;;;24.70;41.00;;;;;;5025293;28;20230;-61
2021/05/24 06:17:30;;;;;;;0.32;0.30;;;24.70;40.90;;;;;;5025169;28;20042;-60
2021/05/24 06:19:58;;;;;;;0.70;0.40;;;24.80;40.90;;;;;;5025492;28;20053;-61
2021/05/24 06:22:25;;;;;;;0.30;0.30;;;24.80;41.00;;;;;;5024615;28;20080;-61
2021/05/24 06:24:52;;;;;;;0.73;0.30;;;24.90;40.80;;;;;;5025540;28;20481;-61
2021/05/24 06:27:20;;;;;;;0.47;0.47;;;24.90;40.70;;;;;;5025136;28;20045;-61
2021/05/24 06:29:47;;;;;;;0.30;0.30;;;24.90;40.70;;;;;;5025316;28;20088;-61
2021/05/24 06:32:14;;;;;;;0.30;0.30;;;24.90;40.60;;;;;;5025235;28;20042;-61
2021/05/24 06:34:41;;;;;;;0.35;0.35;;;25.00;40.60;;;;;;5025038;28;20045;-61
2021/05/24 06:37:08;;;;;;;0.30;0.30;;;25.00;40.50;;;;;;5023956;28;20091;-61
2021/05/24 06:39:35;;;;;;;0.30;0.30;;;25.00;40.40;;;;;;5024995;28;20103;-61
2021/05/24 06:42:03;;;;;;;0.50;0.20;;;25.10;40.40;;;;;;5024966;28;20178;-61
2021/05/24 06:44:30;;;;;;;0.55;0.50;;;25.10;40.30;;;;;;5025260;28;20045;-61
2021/05/24 06:46:57;;;;;;;0.20;0.20;;;25.10;40.20;;;;;;5024413;28;20083;-60
2021/05/24 06:49:27;;;;;;;;;;;25.20;40.30;;;;;;5025536;28;20060;-61
2021/05/24 06:51:55;;;;;;;0.20;0.20;;;25.20;40.20;;;;;;5025131;28;20421;-61
2021/05/24 06:54:22;;;;;;;0.30;0.30;;;25.20;40.20;;;;;;5023426;28;20053;-60
2021/05/24 06:56:49;;;;;;;0.35;0.35;;;25.20;40.20;;;;;;5025029;28;20154;-61
2021/05/24 06:59:16;;;;;;;0.22;0.22;;;25.20;40.10;;;;;;5024802;28;20080;-61
2021/05/24 07:01:44;;;;;;;0.28;0.28;;;25.20;40.10;;;;;;5025664;28;20099;-60
2021/05/24 07:04:11;;;;;;;0.20;0.20;;;25.30;40.10;;;;;;5024370;28;20095;-61
2021/05/24 07:06:38;;;;;;;0.30;0.30;;;25.30;40.10;;;;;;5025446;28;20067;-61
2021/05/24 07:09:06;;;;;;;0.40;0.40;;;25.30;40.00;;;;;;5024999;28;20085;-61
2021/05/24 07:11:33;;;;;;;0.40;0.40;;;25.40;40.00;;;;;;5023498;28;20049;-61
2021/05/24 07:14:00;;;;;;;0.47;0.47;;;25.40;39.90;;;;;;5026506;28;20508;-61
2021/05/24 07:16:27;;;;;;;0.40;0.40;;;25.40;39.90;;;;;;5028998;28;20140;-61
2021/05/24 07:18:55;;;;;;;0.38;0.38;;;25.40;39.80;;;;;;5040556;28;20077;-61
2021/05/24 07:21:22;;;;;;;0.20;0.20;;;25.40;39.80;;;;;;5048557;28;20128;-61
2021/05/24 07:23:49;;;;;;;0.30;0.30;;;25.40;39.80;;;;;;5046765;28;20521;-61
2021/05/24 07:26:16;;;;;;;0.13;0.13;;;25.40;39.90;;;;;;5048881;28;20048;-61
2021/05/24 07:28:43;;;;;;;0.40;0.40;;;25.40;39.90;;;;;;5047920;28;20048;-61
2021/05/24 07:31:10;;;;;;;0.30;0.30;;;25.40;39.90;;;;;;5048405;28;20088;-60
2021/05/24 07:33:37;;;;;;;0.35;0.35;;;25.40;39.90;;;;;;5048037;28;20060;-61
2021/05/24 07:36:05;;;;;;;0.40;0.40;;;25.40;40.00;;;;;;5048449;28;20502;-61
2021/05/24 07:38:32;;;;;;;0.10;0.10;;;25.40;40.00;;;;;;5048342;28;20045;-61
2021/05/24 07:41:00;;;;;;;0.20;0.20;;;25.40;40.00;;;;;;5048186;28;20127;-61
2021/05/24 07:43:27;;;;;;;0.30;0.30;;;25.40;40.00;;;;;;5047544;28;20219;-60
2021/05/24 07:45:54;;;;;;;0.73;0.30;;;25.40;40.10;;;;;;5048512;28;20052;-61
2021/05/24 07:48:21;;;;;;;0.25;0.20;;;25.40;40.00;;;;;;5047547;28;20498;-61
2021/05/24 07:50:49;;;;;;;0.40;0.40;;;25.40;40.00;;;;;;5048346;28;20056;-61
2021/05/24 07:53:16;;;;;;;0.25;0.25;;;25.40;40.00;;;;;;5047423;28;20088;-61
2021/05/24 07:55:43;;;;;;;0.20;0.20;;;25.40;39.90;;;;;;5048321;28;20049;-61
2021/05/24 07:58:10;;;;;;;0.20;0.20;;;25.40;39.80;;;;;;5047928;28;20063;-61
2021/05/24 08:00:37;;;;;;;0.20;0.20;;;25.50;39.80;;;;;;5048290;28;20091;-63
2021/05/24 08:03:04;;;;;;;0.28;0.28;;;25.50;39.80;;;;;;5047594;28;20053;-61
2021/05/24 08:05:31;;;;;;;0.30;0.30;;;25.50;39.70;;;;;;5046575;28;20044;-61
2021/05/24 08:07:58;;;;;;;0.82;0.40;;;25.50;39.70;;;;;;5047148;28;20083;-61
2021/05/24 08:10:25;;;;;;;0.30;0.30;;;25.50;39.60;;;;;;5047422;28;20140;-61
2021/05/24 08:12:53;;;;;;;0.38;0.38;;;25.50;39.60;;;;;;5047885;28;20539;-61
2021/05/24 08:15:29;;;;;;;0.35;0.35;;;25.60;39.60;;;;;;5047153;28;20464;-61
2021/05/24 08:18:01;;;;;;;0.28;0.28;;;25.60;39.60;;;;;;5047085;28;20045;-61
2021/05/24 08:20:29;;;;;;;0.40;0.40;;;25.60;39.50;;;;;;5047880;28;20144;-61
2021/05/24 08:22:56;;;;;;;0.32;0.20;;;25.60;39.50;;;;;;5047724;28;20091;-61
2021/05/24 08:25:24;;;;;;;0.70;0.30;;;25.60;39.50;;;;;;5047122;28;20053;-61
2021/05/24 08:27:51;;;;;;;0.40;0.40;;;25.60;39.50;;;;;;5046973;28;20124;-61
2021/05/24 08:30:29;;;;;;;0.30;0.30;;;25.50;39.50;;;;;;5047338;28;20136;-61
2021/05/24 08:32:59;;;;;;;0.35;0.28;;;25.50;39.60;;;;;;5048103;28;20346;-61
2021/05/24 08:35:26;;;;;;;;;;;25.50;39.60;;;;;;5047424;28;20464;-61
2021/05/24 08:37:53;;;;;;;0.32;0.32;;;25.50;39.60;;;;;;5047442;28;20000;-61
2021/05/24 08:40:22;;;;;;;0.28;0.28;;;25.50;39.60;;;;;;5046823;28;20068;-61
2021/05/24 08:42:49;;;;;;;0.40;0.40;;;25.50;40.20;;;;;;5047173;28;20107;-61
2021/05/24 08:45:18;;;;;;;1.10;0.60;;;25.50;39.60;;;;;;5046494;28;20336;-61
2021/05/24 08:47:49;;;;;;;0.43;0.30;;;25.50;39.50;;;;;;5046976;28;20052;-62
2021/05/24 08:50:18;;;;;;;0.20;0.20;;;25.60;39.50;;;;;;5047184;28;20146;-61
2021/05/24 08:52:45;;;;;;;0.28;0.28;;;25.60;39.50;;;;;;5045578;28;20143;-61
2021/05/24 08:55:14;;;;;;;0.20;0.17;;;25.60;39.40;;;;;;5046350;28;20128;-61
2021/05/24 08:57:42;;;;;;;0.40;0.20;;;25.60;39.40;;;;;;5046755;28;20049;-61
2021/05/24 09:00:13;;;;;;;0.20;0.20;;;25.60;39.40;;;;;;5046951;28;20480;-61
2021/05/24 09:02:48;;;;;;;0.25;0.25;;;25.60;39.40;;;;;;5047318;28;20049;-61
2021/05/24 09:05:16;;;;;;;0.10;0.10;;;25.60;39.40;;;;;;5045934;28;20076;-61
2021/05/24 09:07:51;;;;;;;0.10;0.10;;;25.60;39.40;;;;;;5046421;28;20144;-61
2021/05/24 09:10:21;;;;;;;0.22;0.22;;;25.60;39.40;;;;;;5045904;28;20119;-61
2021/05/24 09:12:49;;;;;;;0.30;0.30;;;25.60;39.40;;;;;;5046690;28;20072;-61
2021/05/24 09:15:17;;;;;;;0.55;0.20;;;25.60;39.40;;;;;;5046293;28;20122;-60
2021/05/24 09:17:57;;;;;;;0.43;0.40;;;25.50;39.40;;;;;;5046091;28;20041;-61
2021/05/24 09:20:27;;;;;;;0.45;0.20;;;25.50;39.50;;;;;;5045538;28;20045;-61
2021/05/24 09:23:22;;;;;;;0.20;0.20;;;25.50;39.50;;;;;;5046453;28;20081;-61
2021/05/24 09:26:00;;;;;;;0.40;0.40;;;25.50;39.60;;;;;;5046165;28;20406;-61
2021/05/24 09:28:41;;;;;;;0.28;0.28;;;25.50;39.60;;;;;;5045693;28;20045;-61
2021/05/24 09:31:16;;;;;;;0.30;0.20;;;25.40;39.60;;;;;;5044653;28;20099;-61
2021/05/24 09:34:00;;;;;;;0.15;0.15;;;25.40;39.60;;;;;;5046822;28;20081;-61
2021/05/24 09:36:29;;;;;;;0.50;0.35;;;25.40;39.60;;;;;;5045110;28;20055;-61
2021/05/24 09:39:04;;;;;;;0.20;0.20;;;25.50;39.70;;;;;;5045992;28;20047;-61
2021/05/24 09:41:40;;;;;;;0.10;0.10;;;25.40;39.60;;;;;;5045431;28;20132;-61
2021/05/24 09:44:08;;;;;;;0.32;0.25;;;25.40;39.60;;;;;;5046540;28;20106;-61
2021/05/24 09:46:39;;;;;;;0.40;0.30;;;25.40;39.60;;;;;;5045743;28;20077;-60
2021/05/24 09:49:06;;;;;;;0.57;0.40;;;25.40;39.70;;;;;;5045810;28;20053;-61
2021/05/24 09:51:37;;;;;;;0.20;0.20;;;25.40;39.70;;;;;;5045518;28;20114;-61
2021/05/24 09:54:09;;;;;;;0.40;0.40;;;25.40;39.80;;;;;;5045402;28;20457;-61
2021/05/24 09:56:39;;;;;;;0.28;0.28;;;25.40;39.80;;;;;;5045927;28;20053;-61
2021/05/24 09:59:11;;;;;;;;;;;25.40;39.80;;;;;;5046227;28;20085;-61
2021/05/24 10:01:42;;;;;;;0.65;0.20;;;25.40;39.80;;;;;;5045753;28;19971;-61
2021/05/24 10:04:15;;;;;;;0.30;0.30;;;25.40;39.80;;;;;;5045755;28;20075;-61
2021/05/24 10:06:43;;;;;;;0.22;0.20;;;25.30;39.80;;;;;;5045205;28;20136;-61
2021/05/24 10:09:13;;;;;;;0.20;0.20;;;25.40;39.90;;;;;;5045619;28;20041;-61
2021/05/24 10:11:43;;;;;;;0.30;0.30;;;25.40;39.80;;;;;;5045231;28;20072;-60
2021/05/24 10:14:17;;;;;;;0.20;0.20;;;25.40;39.80;;;;;;5045321;28;20516;-61
2021/05/24 10:16:52;;;;;;;0.68;0.30;;;25.40;39.70;;;;;;5044872;28;20057;-61
2021/05/24 10:19:24;;;;;;;0.40;0.40;;;25.40;39.70;;;;;;5045420;28;20506;-61
2021/05/24 10:21:52;;;;;;;0.30;0.30;;;25.40;39.70;;;;;;5045318;28;20149;-61
2021/05/24 10:24:24;;;;;;;0.45;0.40;;;25.50;39.80;;;;;;5045469;28;20041;-61
2021/05/24 10:26:55;;;;;;;0.30;0.30;;;25.50;39.70;;;;;;5045009;28;20578;-61
2021/05/24 10:29:23;;;;;;;0.30;0.30;;;25.50;39.80;;;;;;5044676;28;20087;-61
2021/05/24 10:31:51;;;;;;;0.52;0.40;;;25.50;39.80;;;;;;5044647;28;20095;-61
2021/05/24 10:34:24;;;;;;;0.30;0.30;;;25.50;39.90;;;;;;5045217;28;20525;-61
2021/05/24 10:37:13;;;;;;;0.30;0.30;;;25.40;39.80;;;;;;5044996;28;20049;-61
2021/05/24 10:40:01;;;;;;;0.38;0.30;;;25.40;39.90;;;;;;5045627;28;20409;-61
2021/05/24 10:42:37;;;;;;;0.35;0.35;;;25.40;39.90;;;;;;5044736;28;20063;-61
2021/05/24 10:45:22;;;;;;;0.52;0.30;;;25.40;40.00;;;;;;5045157;28;20052;-61
2021/05/24 10:47:55;;;;;;;0.57;0.20;;;25.40;40.00;;;;;;5044566;28;20040;-61
2021/05/24 10:50:25;;;;;;;0.30;0.30;;;25.40;40.10;;;;;;5045188;28;20055;-61
2021/05/24 10:53:00;;;;;;;0.25;0.25;;;25.40;40.10;;;;;;5044495;28;20088;-61
2021/05/24 10:55:42;;;;;;;0.50;0.40;;;25.40;40.10;;;;;;5045486;28;20096;-61
2021/05/24 10:58:17;;;;;;;0.40;0.30;;;25.40;40.00;;;;;;5044807;28;20536;-61
2021/05/24 11:01:03;;;;;;;0.45;0.30;;;25.40;40.00;;;;;;5045160;28;20048;-61
2021/05/24 11:03:32;;;;;;;0.75;0.50;;;25.40;40.10;;;;;;5045202;28;20052;-61
2021/05/24 11:06:17;;;;;;;0.95;0.50;;;25.40;40.10;;;;;;5044076;28;20048;-61
2021/05/24 11:09:02;;;;;;;0.50;0.50;;;25.40;40.10;;;;;;5044860;28;20049;-61
2021/05/24 11:11:32;;;;;;;0.35;0.35;;;25.40;40.10;;;;;;5044516;28;20163;-61
2021/05/24 11:14:03;;;;;;;0.20;0.20;;;25.40;40.10;;;;;;5045019;28;20146;-61
2021/05/24 11:16:33;;;;;;;0.43;0.40;;;25.40;40.10;;;;;;5044611;28;20364;-61
2021/05/24 11:19:11;;;;;;;0.43;0.30;;;25.40;40.10;;;;;;5044434;28;20114;-61
2021/05/24 11:21:41;;;;;;;0.20;0.20;;;25.40;40.10;;;;;;5045013;28;20124;-61
2021/05/24 11:27:12;;;;;;;0.30;0.30;;;25.40;40.10;;;;;;5044321;28;20224;-61
2021/05/24 11:29:43;;;;;;;0.40;0.40;;;25.50;40.00;;;;;;5044689;28;20449;-61
2021/05/24 11:32:21;;;;;;;0.40;0.40;;;25.50;39.90;;;;;;5044397;28;20132;-63
2021/05/24 11:34:48;;;;;;;0.45;0.45;;;25.60;40.00;;;;;;5044792;28;20049;-61
2021/05/24 11:37:17;;;;;;;0.40;0.40;;;25.50;39.90;;;;;;5044090;28;20173;-61
2021/05/24 11:39:54;;;;;;;0.40;0.40;;;25.50;39.90;;;;;;5044949;28;20102;-61
2021/05/24 11:42:31;;;;;;;0.60;0.60;;;25.50;40.00;;;;;;5043582;28;20049;-61
2021/05/24 11:45:02;;;;;;;0.40;0.40;;;25.50;40.50;;;;;;5045248;28;20307;-61
2021/05/24 11:47:29;;;;;;;0.57;0.38;;;25.50;40.00;;;;;;5043907;28;20067;-61
2021/05/24 11:50:06;;;;;;;1.77;0.32;;;25.50;40.00;;;;;;5044282;28;20049;-61
2021/05/24 11:52:36;;;;;;;0.90;0.55;;;25.50;40.00;;;;;;5043887;28;20045;-61
2021/05/24 11:55:13;;;;;;;0.22;0.22;;;25.50;40.00;;;;;;5044083;28;20076;-60
2021/05/24 11:57:44;;;;;;;0.88;0.40;;;25.50;40.10;;;;;;5043967;28;20060;-61
2021/05/24 12:00:15;;;;;;;0.38;0.38;;;25.50;40.10;;;;;;5046032;28;20095;-61
2021/05/24 12:02:43;;;;;;;0.40;0.40;;;25.50;40.20;;;;;;5046101;28;20595;-61
2021/05/24 12:05:12;;;;;;;0.47;0.22;;;25.50;40.20;;;;;;5047610;28;20128;-61
2021/05/24 12:07:39;;;;;;;0.65;0.50;;;25.50;40.20;;;;;;5047616;28;20132;-61
2021/05/24 12:10:09;;;;;;;0.50;0.50;;;25.60;40.30;;;;;;5048313;28;20720;-61
2021/05/24 12:12:38;;;;;;;0.63;0.50;;;25.60;40.20;;;;;;5047387;28;20044;-61
2021/05/24 12:15:14;;;;;;;1.00;0.35;;;25.60;40.10;;;;;;5048031;28;20132;-61
2021/05/24 12:17:52;;;;;;;0.55;0.47;;;25.60;40.00;;;;;;5047182;28;20037;-60
2021/05/24 12:20:22;;;;;;;0.85;0.77;;;25.70;40.00;;;;;;5047729;28;20049;-61
2021/05/24 12:22:52;;;;;;;0.50;0.50;;;25.70;40.00;;;;;;5047264;28;20051;-61
2021/05/24 12:25:20;;;;;;;0.25;0.25;;;25.70;39.90;;;;;;5047502;28;20110;-61
2021/05/24 12:27:51;;;;;;;0.50;0.50;;;25.80;39.90;;;;;;5047351;28;20085;-61
2021/05/24 12:30:41;;;;;;;0.47;0.40;;;25.80;39.90;;;;;;5046117;28;20155;-60
2021/05/24 12:33:10;;;;;;;0.43;0.43;;;25.90;39.90;;;;;;5046996;28;20091;-61
2021/05/24 12:35:41;;;;;;;0.40;0.40;;;25.90;40.30;;;;;;5047712;28;20540;-61
2021/05/24 12:38:18;;;;;;;0.55;0.55;;;25.90;39.70;;;;;;5047001;28;20108;-61
2021/05/24 12:40:52;;;;;;;0.60;0.60;;;25.90;39.70;;;;;;5047464;28;20053;-61
2021/05/24 12:43:19;;;;;;;0.75;0.30;;;25.90;39.60;;;;;;5046189;28;20049;-61
2021/05/24 12:45:47;;;;;;;0.40;0.40;;;26.00;39.70;;;;;;5047458;28;20053;-61
2021/05/24 12:48:17;;;;;;;0.30;0.30;;;26.00;39.60;;;;;;5046511;28;20120;-60
2021/05/24 12:50:48;;;;;;;0.57;0.57;;;26.00;39.50;;;;;;5047192;28;20195;-61
2021/05/24 12:53:18;;;;;;;0.82;0.63;;;26.00;39.50;;;;;;5046226;28;20103;-61
2021/05/24 12:55:46;;;;;;;;;;;26.10;39.40;;;;;;5047478;28;20053;-61
2021/05/24 12:58:16;;;;;;;0.30;0.30;;;26.20;39.40;;;;;;5046751;28;19935;-61
2021/05/24 13:00:47;;;;;;;1.08;0.70;;;26.20;39.30;;;;;;5046390;28;20049;-61